sensor_id;sensor_type;location;lat;lon;timestamp;P1;durP1;ratioP1;P2;durP2;ratioP2
16416;SDS011;8317;52.186;5.688;2023-03-20T00:00:06;19.23;;;10.68;;
16416;SDS011;8317;52.186;5.688;2023-03-20T00:02:40;27.55;;;11.15;;
16416;SDS011;8317;52.186;5.688;2023-03-20T00:07:54;22.70;;;9.95;;
16416;SDS011;8317;52.186;5.688;2023-03-20T00:10:25;19.15;;;10.07;;
16416;SDS011;8317;52.186;5.688;2023-03-20T00:13:02;20.08;;;10.25;;
16416;SDS011;8317;52.186;5.688;2023-03-20T00:15:31;18.58;;;9.00;;
16416;SDS011;8317;52.186;5.688;2023-03-20T00:18:01;15.35;;;8.95;;
16416;SDS011;8317;52.186;5.688;2023-03-20T00:20:29;19.00;;;9.63;;
16416;SDS011;8317;52.186;5.688;2023-03-20T00:22:56;20.25;;;9.82;;
16416;SDS011;8317;52.186;5.688;2023-03-20T00:25:24;18.83;;;10.05;;
16416;SDS011;8317;52.186;5.688;2023-03-20T00:27:52;20.42;;;10.68;;
16416;SDS011;8317;52.186;5.688;2023-03-20T00:30:21;26.30;;;11.10;;
16416;SDS011;8317;52.186;5.688;2023-03-20T00:32:52;19.60;;;10.75;;
16416;SDS011;8317;52.186;5.688;2023-03-20T00:35:22;23.70;;;12.88;;
16416;SDS011;8317;52.186;5.688;2023-03-20T00:37:52;25.23;;;11.43;;
16416;SDS011;8317;52.186;5.688;2023-03-20T00:40:19;27.00;;;11.48;;
16416;SDS011;8317;52.186;5.688;2023-03-20T00:42:50;25.15;;;13.05;;
16416;SDS011;8317;52.186;5.688;2023-03-20T00:45:23;26.02;;;12.35;;
16416;SDS011;8317;52.186;5.688;2023-03-20T00:47:51;22.23;;;12.80;;
16416;SDS011;8317;52.186;5.688;2023-03-20T00:50:19;27.45;;;12.90;;
16416;SDS011;8317;52.186;5.688;2023-03-20T00:52:48;24.35;;;12.45;;
16416;SDS011;8317;52.186;5.688;2023-03-20T00:55:16;23.20;;;12.85;;
16416;SDS011;8317;52.186;5.688;2023-03-20T00:57:44;23.75;;;13.40;;
16416;SDS011;8317;52.186;5.688;2023-03-20T01:00:23;24.35;;;12.57;;
16416;SDS011;8317;52.186;5.688;2023-03-20T01:02:55;26.17;;;14.52;;
16416;SDS011;8317;52.186;5.688;2023-03-20T01:05:23;25.67;;;13.70;;
16416;SDS011;8317;52.186;5.688;2023-03-20T01:07:51;27.48;;;14.18;;
16416;SDS011;8317;52.186;5.688;2023-03-20T01:10:18;23.33;;;14.18;;
16416;SDS011;8317;52.186;5.688;2023-03-20T01:12:45;26.63;;;13.88;;
16416;SDS011;8317;52.186;5.688;2023-03-20T01:15:17;28.10;;;14.18;;
16416;SDS011;8317;52.186;5.688;2023-03-20T01:17:48;24.77;;;14.35;;
16416;SDS011;8317;52.186;5.688;2023-03-20T01:20:17;25.42;;;14.68;;
16416;SDS011;8317;52.186;5.688;2023-03-20T01:22:47;28.17;;;15.43;;
16416;SDS011;8317;52.186;5.688;2023-03-20T01:25:14;32.17;;;17.00;;
16416;SDS011;8317;52.186;5.688;2023-03-20T01:27:42;28.88;;;16.30;;
16416;SDS011;8317;52.186;5.688;2023-03-20T01:30:14;34.55;;;17.75;;
16416;SDS011;8317;52.186;5.688;2023-03-20T01:32:43;30.80;;;17.25;;
16416;SDS011;8317;52.186;5.688;2023-03-20T01:35:15;31.92;;;18.23;;
16416;SDS011;8317;52.186;5.688;2023-03-20T01:37:43;32.20;;;18.48;;
16416;SDS011;8317;52.186;5.688;2023-03-20T01:42:57;30.92;;;17.45;;
16416;SDS011;8317;52.186;5.688;2023-03-20T01:45:27;35.28;;;17.90;;
16416;SDS011;8317;52.186;5.688;2023-03-20T01:47:58;39.40;;;18.58;;
16416;SDS011;8317;52.186;5.688;2023-03-20T01:50:27;29.98;;;17.20;;
16416;SDS011;8317;52.186;5.688;2023-03-20T01:53:02;29.63;;;18.75;;
16416;SDS011;8317;52.186;5.688;2023-03-20T01:55:32;32.53;;;15.88;;
16416;SDS011;8317;52.186;5.688;2023-03-20T01:58:01;29.90;;;16.30;;
16416;SDS011;8317;52.186;5.688;2023-03-20T02:00:32;30.63;;;17.42;;
16416;SDS011;8317;52.186;5.688;2023-03-20T02:03:00;36.33;;;18.35;;
16416;SDS011;8317;52.186;5.688;2023-03-20T02:05:30;35.38;;;17.17;;
16416;SDS011;8317;52.186;5.688;2023-03-20T02:08:02;33.35;;;17.10;;
16416;SDS011;8317;52.186;5.688;2023-03-20T02:10:36;26.20;;;16.27;;
16416;SDS011;8317;52.186;5.688;2023-03-20T02:13:04;33.28;;;17.10;;
16416;SDS011;8317;52.186;5.688;2023-03-20T02:15:32;29.10;;;16.10;;
16416;SDS011;8317;52.186;5.688;2023-03-20T02:18:00;29.90;;;16.65;;
16416;SDS011;8317;52.186;5.688;2023-03-20T02:20:32;28.40;;;14.85;;
16416;SDS011;8317;52.186;5.688;2023-03-20T02:26:11;25.48;;;14.63;;
16416;SDS011;8317;52.186;5.688;2023-03-20T02:32:08;24.85;;;12.85;;
16416;SDS011;8317;52.186;5.688;2023-03-20T02:34:53;24.90;;;13.07;;
16416;SDS011;8317;52.186;5.688;2023-03-20T02:40:29;23.23;;;12.98;;
16416;SDS011;8317;52.186;5.688;2023-03-20T02:43:04;25.45;;;11.88;;
16416;SDS011;8317;52.186;5.688;2023-03-20T02:45:43;23.88;;;11.65;;
16416;SDS011;8317;52.186;5.688;2023-03-20T02:48:15;24.13;;;11.52;;
16416;SDS011;8317;52.186;5.688;2023-03-20T02:50:54;20.45;;;11.32;;
16416;SDS011;8317;52.186;5.688;2023-03-20T02:53:33;19.33;;;10.20;;
16416;SDS011;8317;52.186;5.688;2023-03-20T02:56:10;19.35;;;10.93;;
16416;SDS011;8317;52.186;5.688;2023-03-20T02:58:44;18.73;;;9.60;;
16416;SDS011;8317;52.186;5.688;2023-03-20T03:01:15;15.07;;;9.40;;
16416;SDS011;8317;52.186;5.688;2023-03-20T03:03:46;16.45;;;9.15;;
16416;SDS011;8317;52.186;5.688;2023-03-20T03:06:18;20.40;;;9.85;;
16416;SDS011;8317;52.186;5.688;2023-03-20T03:08:53;17.10;;;9.55;;
16416;SDS011;8317;52.186;5.688;2023-03-20T03:11:24;18.38;;;10.07;;
16416;SDS011;8317;52.186;5.688;2023-03-20T03:13:52;18.75;;;9.27;;
16416;SDS011;8317;52.186;5.688;2023-03-20T03:16:21;16.27;;;10.60;;
16416;SDS011;8317;52.186;5.688;2023-03-20T03:18:55;18.17;;;8.75;;
16416;SDS011;8317;52.186;5.688;2023-03-20T03:21:29;19.52;;;10.25;;
16416;SDS011;8317;52.186;5.688;2023-03-20T03:23:59;20.25;;;9.75;;
16416;SDS011;8317;52.186;5.688;2023-03-20T03:26:27;18.00;;;9.00;;
16416;SDS011;8317;52.186;5.688;2023-03-20T03:28:59;17.02;;;8.25;;
16416;SDS011;8317;52.186;5.688;2023-03-20T03:31:30;18.40;;;9.88;;
16416;SDS011;8317;52.186;5.688;2023-03-20T03:33:58;15.45;;;9.00;;
16416;SDS011;8317;52.186;5.688;2023-03-20T03:36:31;24.92;;;9.25;;
16416;SDS011;8317;52.186;5.688;2023-03-20T03:39:08;19.95;;;10.57;;
16416;SDS011;8317;52.186;5.688;2023-03-20T03:41:43;23.95;;;10.88;;
16416;SDS011;8317;52.186;5.688;2023-03-20T03:44:12;22.88;;;10.18;;
16416;SDS011;8317;52.186;5.688;2023-03-20T03:46:47;24.13;;;10.93;;
16416;SDS011;8317;52.186;5.688;2023-03-20T03:49:19;23.35;;;12.13;;
16416;SDS011;8317;52.186;5.688;2023-03-20T03:51:49;24.58;;;12.30;;
16416;SDS011;8317;52.186;5.688;2023-03-20T03:54:21;25.55;;;12.30;;
16416;SDS011;8317;52.186;5.688;2023-03-20T03:56:50;20.67;;;12.38;;
16416;SDS011;8317;52.186;5.688;2023-03-20T03:59:19;24.55;;;12.02;;
16416;SDS011;8317;52.186;5.688;2023-03-20T04:01:51;22.90;;;12.25;;
16416;SDS011;8317;52.186;5.688;2023-03-20T04:04:21;25.05;;;12.07;;
16416;SDS011;8317;52.186;5.688;2023-03-20T04:06:50;26.20;;;12.40;;
16416;SDS011;8317;52.186;5.688;2023-03-20T04:09:17;25.88;;;12.10;;
16416;SDS011;8317;52.186;5.688;2023-03-20T04:11:47;23.15;;;12.10;;
16416;SDS011;8317;52.186;5.688;2023-03-20T04:14:15;27.05;;;12.80;;
16416;SDS011;8317;52.186;5.688;2023-03-20T04:16:43;24.27;;;12.60;;
16416;SDS011;8317;52.186;5.688;2023-03-20T04:19:10;22.95;;;11.50;;
16416;SDS011;8317;52.186;5.688;2023-03-20T04:21:37;24.40;;;11.93;;
16416;SDS011;8317;52.186;5.688;2023-03-20T04:24:04;26.60;;;12.38;;
16416;SDS011;8317;52.186;5.688;2023-03-20T04:26:32;27.35;;;11.68;;
16416;SDS011;8317;52.186;5.688;2023-03-20T04:29:00;26.00;;;11.43;;
16416;SDS011;8317;52.186;5.688;2023-03-20T04:31:27;29.60;;;11.55;;
16416;SDS011;8317;52.186;5.688;2023-03-20T04:33:54;27.52;;;12.70;;
16416;SDS011;8317;52.186;5.688;2023-03-20T04:36:21;27.35;;;12.48;;
16416;SDS011;8317;52.186;5.688;2023-03-20T04:38:48;24.63;;;12.43;;
16416;SDS011;8317;52.186;5.688;2023-03-20T04:41:15;29.60;;;13.10;;
16416;SDS011;8317;52.186;5.688;2023-03-20T04:43:45;26.90;;;12.73;;
16416;SDS011;8317;52.186;5.688;2023-03-20T04:46:13;24.05;;;13.02;;
16416;SDS011;8317;52.186;5.688;2023-03-20T04:48:40;28.13;;;12.70;;
16416;SDS011;8317;52.186;5.688;2023-03-20T04:51:07;25.40;;;13.10;;
16416;SDS011;8317;52.186;5.688;2023-03-20T04:53:34;28.73;;;14.07;;
16416;SDS011;8317;52.186;5.688;2023-03-20T04:56:01;31.52;;;14.57;;
16416;SDS011;8317;52.186;5.688;2023-03-20T04:58:28;32.58;;;15.98;;
16416;SDS011;8317;52.186;5.688;2023-03-20T05:00:55;26.73;;;14.27;;
16416;SDS011;8317;52.186;5.688;2023-03-20T05:03:23;26.52;;;14.95;;
16416;SDS011;8317;52.186;5.688;2023-03-20T05:05:51;32.53;;;14.68;;
16416;SDS011;8317;52.186;5.688;2023-03-20T05:08:18;34.75;;;15.85;;
16416;SDS011;8317;52.186;5.688;2023-03-20T05:10:45;32.80;;;15.63;;
16416;SDS011;8317;52.186;5.688;2023-03-20T05:13:12;31.17;;;15.88;;
16416;SDS011;8317;52.186;5.688;2023-03-20T05:15:39;29.58;;;16.08;;
16416;SDS011;8317;52.186;5.688;2023-03-20T05:18:06;29.98;;;16.00;;
16416;SDS011;8317;52.186;5.688;2023-03-20T05:20:35;36.92;;;16.80;;
16416;SDS011;8317;52.186;5.688;2023-03-20T05:23:02;33.88;;;16.67;;
16416;SDS011;8317;52.186;5.688;2023-03-20T05:25:28;35.22;;;17.83;;
16416;SDS011;8317;52.186;5.688;2023-03-20T05:27:55;33.35;;;17.90;;
16416;SDS011;8317;52.186;5.688;2023-03-20T05:30:22;33.63;;;17.92;;
16416;SDS011;8317;52.186;5.688;2023-03-20T05:32:49;32.90;;;17.85;;
16416;SDS011;8317;52.186;5.688;2023-03-20T05:35:16;32.85;;;17.70;;
16416;SDS011;8317;52.186;5.688;2023-03-20T05:37:45;35.30;;;18.23;;
16416;SDS011;8317;52.186;5.688;2023-03-20T05:40:13;35.65;;;18.33;;
16416;SDS011;8317;52.186;5.688;2023-03-20T05:42:41;35.53;;;18.38;;
16416;SDS011;8317;52.186;5.688;2023-03-20T05:45:08;32.03;;;17.90;;
16416;SDS011;8317;52.186;5.688;2023-03-20T05:47:35;29.75;;;15.70;;
16416;SDS011;8317;52.186;5.688;2023-03-20T05:50:02;35.95;;;18.50;;
16416;SDS011;8317;52.186;5.688;2023-03-20T05:52:29;35.65;;;18.23;;
16416;SDS011;8317;52.186;5.688;2023-03-20T05:54:57;37.65;;;18.85;;
16416;SDS011;8317;52.186;5.688;2023-03-20T05:57:24;36.50;;;19.15;;
16416;SDS011;8317;52.186;5.688;2023-03-20T05:59:51;33.25;;;18.33;;
16416;SDS011;8317;52.186;5.688;2023-03-20T06:02:18;29.73;;;18.55;;
16416;SDS011;8317;52.186;5.688;2023-03-20T06:04:45;33.08;;;17.83;;
16416;SDS011;8317;52.186;5.688;2023-03-20T06:07:13;31.48;;;17.70;;
16416;SDS011;8317;52.186;5.688;2023-03-20T06:09:40;33.08;;;16.58;;
16416;SDS011;8317;52.186;5.688;2023-03-20T06:12:08;41.63;;;18.73;;
16416;SDS011;8317;52.186;5.688;2023-03-20T06:14:35;32.78;;;17.45;;
16416;SDS011;8317;52.186;5.688;2023-03-20T06:17:02;28.58;;;17.02;;
16416;SDS011;8317;52.186;5.688;2023-03-20T06:19:29;31.40;;;17.67;;
16416;SDS011;8317;52.186;5.688;2023-03-20T06:21:56;28.60;;;16.52;;
16416;SDS011;8317;52.186;5.688;2023-03-20T06:24:23;37.95;;;16.95;;
16416;SDS011;8317;52.186;5.688;2023-03-20T06:26:50;31.38;;;16.80;;
16416;SDS011;8317;52.186;5.688;2023-03-20T06:29:18;31.05;;;16.50;;
16416;SDS011;8317;52.186;5.688;2023-03-20T06:31:45;33.47;;;16.30;;
16416;SDS011;8317;52.186;5.688;2023-03-20T06:34:12;32.65;;;17.70;;
16416;SDS011;8317;52.186;5.688;2023-03-20T06:36:39;27.35;;;16.88;;
16416;SDS011;8317;52.186;5.688;2023-03-20T06:39:06;27.42;;;16.40;;
16416;SDS011;8317;52.186;5.688;2023-03-20T06:41:33;27.25;;;15.77;;
16416;SDS011;8317;52.186;5.688;2023-03-20T06:44:00;30.25;;;15.32;;
16416;SDS011;8317;52.186;5.688;2023-03-20T06:46:29;27.75;;;15.82;;
16416;SDS011;8317;52.186;5.688;2023-03-20T06:48:56;31.40;;;15.93;;
16416;SDS011;8317;52.186;5.688;2023-03-20T06:51:23;25.77;;;16.38;;
16416;SDS011;8317;52.186;5.688;2023-03-20T06:53:50;28.00;;;16.58;;
16416;SDS011;8317;52.186;5.688;2023-03-20T06:56:17;28.40;;;16.17;;
16416;SDS011;8317;52.186;5.688;2023-03-20T06:58:43;32.17;;;15.80;;
16416;SDS011;8317;52.186;5.688;2023-03-20T07:01:12;30.38;;;15.75;;
16416;SDS011;8317;52.186;5.688;2023-03-20T07:03:42;29.80;;;14.85;;
16416;SDS011;8317;52.186;5.688;2023-03-20T07:06:09;28.70;;;15.10;;
16416;SDS011;8317;52.186;5.688;2023-03-20T07:08:37;26.02;;;14.88;;
16416;SDS011;8317;52.186;5.688;2023-03-20T07:11:05;25.27;;;14.85;;
16416;SDS011;8317;52.186;5.688;2023-03-20T07:13:33;25.65;;;15.45;;
16416;SDS011;8317;52.186;5.688;2023-03-20T07:16:00;22.50;;;14.85;;
16416;SDS011;8317;52.186;5.688;2023-03-20T07:18:28;25.10;;;15.45;;
16416;SDS011;8317;52.186;5.688;2023-03-20T07:20:58;27.75;;;15.00;;
16416;SDS011;8317;52.186;5.688;2023-03-20T07:23:27;26.17;;;13.30;;
16416;SDS011;8317;52.186;5.688;2023-03-20T07:25:54;29.02;;;14.93;;
16416;SDS011;8317;52.186;5.688;2023-03-20T07:28:22;31.95;;;15.07;;
16416;SDS011;8317;52.186;5.688;2023-03-20T07:30:49;22.58;;;13.30;;
16416;SDS011;8317;52.186;5.688;2023-03-20T07:33:16;24.83;;;14.93;;
16416;SDS011;8317;52.186;5.688;2023-03-20T07:35:44;27.00;;;15.35;;
16416;SDS011;8317;52.186;5.688;2023-03-20T07:38:13;28.65;;;15.63;;
16416;SDS011;8317;52.186;5.688;2023-03-20T07:40:40;24.65;;;15.00;;
16416;SDS011;8317;52.186;5.688;2023-03-20T07:43:06;26.35;;;13.73;;
16416;SDS011;8317;52.186;5.688;2023-03-20T07:45:33;27.00;;;12.70;;
16416;SDS011;8317;52.186;5.688;2023-03-20T07:48:00;28.10;;;14.82;;
16416;SDS011;8317;52.186;5.688;2023-03-20T07:50:27;23.10;;;13.18;;
16416;SDS011;8317;52.186;5.688;2023-03-20T07:52:54;28.35;;;14.63;;
16416;SDS011;8317;52.186;5.688;2023-03-20T07:55:22;27.13;;;13.90;;
16416;SDS011;8317;52.186;5.688;2023-03-20T07:57:49;28.10;;;13.15;;
16416;SDS011;8317;52.186;5.688;2023-03-20T08:00:16;24.70;;;11.55;;
16416;SDS011;8317;52.186;5.688;2023-03-20T08:02:44;23.40;;;12.77;;
16416;SDS011;8317;52.186;5.688;2023-03-20T08:05:11;22.45;;;13.18;;
16416;SDS011;8317;52.186;5.688;2023-03-20T08:07:38;20.58;;;12.68;;
16416;SDS011;8317;52.186;5.688;2023-03-20T08:10:05;28.90;;;13.40;;
16416;SDS011;8317;52.186;5.688;2023-03-20T08:12:33;24.65;;;11.63;;
16416;SDS011;8317;52.186;5.688;2023-03-20T08:15:00;23.50;;;11.90;;
16416;SDS011;8317;52.186;5.688;2023-03-20T08:17:27;22.90;;;12.25;;
16416;SDS011;8317;52.186;5.688;2023-03-20T08:19:54;25.25;;;12.32;;
16416;SDS011;8317;52.186;5.688;2023-03-20T08:22:21;25.42;;;12.13;;
16416;SDS011;8317;52.186;5.688;2023-03-20T08:24:48;22.13;;;11.43;;
16416;SDS011;8317;52.186;5.688;2023-03-20T08:27:15;33.97;;;11.70;;
16416;SDS011;8317;52.186;5.688;2023-03-20T08:29:43;25.33;;;12.18;;
16416;SDS011;8317;52.186;5.688;2023-03-20T08:32:10;20.50;;;11.05;;
16416;SDS011;8317;52.186;5.688;2023-03-20T08:34:37;25.80;;;11.65;;
16416;SDS011;8317;52.186;5.688;2023-03-20T08:37:04;16.80;;;10.95;;
16416;SDS011;8317;52.186;5.688;2023-03-20T08:39:32;19.55;;;10.77;;
16416;SDS011;8317;52.186;5.688;2023-03-20T08:41:59;22.77;;;10.80;;
16416;SDS011;8317;52.186;5.688;2023-03-20T08:44:27;20.75;;;10.70;;
16416;SDS011;8317;52.186;5.688;2023-03-20T08:46:55;20.67;;;10.93;;
16416;SDS011;8317;52.186;5.688;2023-03-20T08:49:22;26.63;;;11.63;;
16416;SDS011;8317;52.186;5.688;2023-03-20T08:51:49;21.02;;;11.18;;
16416;SDS011;8317;52.186;5.688;2023-03-20T08:54:16;23.88;;;10.43;;
16416;SDS011;8317;52.186;5.688;2023-03-20T08:56:43;18.63;;;10.60;;
16416;SDS011;8317;52.186;5.688;2023-03-20T08:59:10;18.60;;;9.68;;
16416;SDS011;8317;52.186;5.688;2023-03-20T09:01:37;21.02;;;10.57;;
16416;SDS011;8317;52.186;5.688;2023-03-20T09:04:05;22.50;;;9.48;;
16416;SDS011;8317;52.186;5.688;2023-03-20T09:06:34;17.88;;;9.52;;
16416;SDS011;8317;52.186;5.688;2023-03-20T09:09:01;19.73;;;10.05;;
16416;SDS011;8317;52.186;5.688;2023-03-20T09:11:28;19.50;;;9.10;;
16416;SDS011;8317;52.186;5.688;2023-03-20T09:13:56;17.67;;;9.23;;
16416;SDS011;8317;52.186;5.688;2023-03-20T09:16:23;21.80;;;9.48;;
16416;SDS011;8317;52.186;5.688;2023-03-20T09:18:50;13.15;;;8.25;;
16416;SDS011;8317;52.186;5.688;2023-03-20T09:21:18;15.95;;;8.02;;
16416;SDS011;8317;52.186;5.688;2023-03-20T09:23:45;17.08;;;7.90;;
16416;SDS011;8317;52.186;5.688;2023-03-20T09:26:12;16.52;;;8.02;;
16416;SDS011;8317;52.186;5.688;2023-03-20T09:28:39;18.10;;;9.00;;
16416;SDS011;8317;52.186;5.688;2023-03-20T09:31:06;15.93;;;8.45;;
16416;SDS011;8317;52.186;5.688;2023-03-20T09:33:33;19.20;;;7.78;;
16416;SDS011;8317;52.186;5.688;2023-03-20T09:36:00;15.80;;;7.38;;
16416;SDS011;8317;52.186;5.688;2023-03-20T09:38:28;15.93;;;7.68;;
16416;SDS011;8317;52.186;5.688;2023-03-20T09:40:56;15.13;;;7.85;;
16416;SDS011;8317;52.186;5.688;2023-03-20T09:43:32;15.63;;;7.22;;
16416;SDS011;8317;52.186;5.688;2023-03-20T09:46:10;14.30;;;7.70;;
16416;SDS011;8317;52.186;5.688;2023-03-20T09:48:53;12.23;;;7.15;;
16416;SDS011;8317;52.186;5.688;2023-03-20T09:51:26;15.95;;;7.70;;
16416;SDS011;8317;52.186;5.688;2023-03-20T09:54:03;16.80;;;7.22;;
16416;SDS011;8317;52.186;5.688;2023-03-20T09:56:35;12.18;;;7.40;;
16416;SDS011;8317;52.186;5.688;2023-03-20T09:59:03;16.52;;;7.25;;
16416;SDS011;8317;52.186;5.688;2023-03-20T10:01:32;14.18;;;7.10;;
16416;SDS011;8317;52.186;5.688;2023-03-20T10:04:06;16.85;;;7.03;;
16416;SDS011;8317;52.186;5.688;2023-03-20T10:06:35;17.50;;;7.30;;
16416;SDS011;8317;52.186;5.688;2023-03-20T10:09:05;13.55;;;7.43;;
16416;SDS011;8317;52.186;5.688;2023-03-20T10:11:53;14.57;;;7.05;;
16416;SDS011;8317;52.186;5.688;2023-03-20T10:14:32;14.05;;;7.30;;
16416;SDS011;8317;52.186;5.688;2023-03-20T10:17:16;13.40;;;7.05;;
16416;SDS011;8317;52.186;5.688;2023-03-20T10:19:56;14.18;;;6.90;;
16416;SDS011;8317;52.186;5.688;2023-03-20T10:22:24;20.77;;;7.05;;
16416;SDS011;8317;52.186;5.688;2023-03-20T10:24:57;15.45;;;7.20;;
16416;SDS011;8317;52.186;5.688;2023-03-20T10:27:29;12.75;;;6.53;;
16416;SDS011;8317;52.186;5.688;2023-03-20T10:30:02;11.30;;;6.57;;
16416;SDS011;8317;52.186;5.688;2023-03-20T10:32:46;12.25;;;6.75;;
16416;SDS011;8317;52.186;5.688;2023-03-20T10:35:22;14.50;;;6.93;;
16416;SDS011;8317;52.186;5.688;2023-03-20T10:37:57;15.13;;;6.35;;
16416;SDS011;8317;52.186;5.688;2023-03-20T10:40:38;12.65;;;6.70;;
16416;SDS011;8317;52.186;5.688;2023-03-20T10:43:09;10.88;;;5.60;;
16416;SDS011;8317;52.186;5.688;2023-03-20T10:45:42;11.55;;;5.93;;
16416;SDS011;8317;52.186;5.688;2023-03-20T10:48:16;13.82;;;6.38;;
16416;SDS011;8317;52.186;5.688;2023-03-20T10:50:49;14.10;;;5.60;;
16416;SDS011;8317;52.186;5.688;2023-03-20T10:53:29;17.25;;;6.22;;
16416;SDS011;8317;52.186;5.688;2023-03-20T10:56:01;13.82;;;5.50;;
16416;SDS011;8317;52.186;5.688;2023-03-20T10:58:32;12.82;;;6.00;;
16416;SDS011;8317;52.186;5.688;2023-03-20T11:01:03;7.60;;;5.28;;
16416;SDS011;8317;52.186;5.688;2023-03-20T11:03:31;10.95;;;5.72;;
16416;SDS011;8317;52.186;5.688;2023-03-20T11:06:00;12.02;;;6.15;;
16416;SDS011;8317;52.186;5.688;2023-03-20T11:08:30;12.73;;;6.15;;
16416;SDS011;8317;52.186;5.688;2023-03-20T11:11:02;12.82;;;5.75;;
16416;SDS011;8317;52.186;5.688;2023-03-20T11:13:31;15.10;;;5.82;;
16416;SDS011;8317;52.186;5.688;2023-03-20T11:16:09;15.35;;;5.63;;
16416;SDS011;8317;52.186;5.688;2023-03-20T11:18:42;14.70;;;6.63;;
16416;SDS011;8317;52.186;5.688;2023-03-20T11:21:13;17.70;;;6.82;;
16416;SDS011;8317;52.186;5.688;2023-03-20T11:23:43;11.93;;;6.07;;
16416;SDS011;8317;52.186;5.688;2023-03-20T11:26:12;13.30;;;6.45;;
16416;SDS011;8317;52.186;5.688;2023-03-20T11:28:41;13.32;;;5.72;;
16416;SDS011;8317;52.186;5.688;2023-03-20T11:31:15;11.32;;;6.32;;
16416;SDS011;8317;52.186;5.688;2023-03-20T11:33:45;16.38;;;5.80;;
16416;SDS011;8317;52.186;5.688;2023-03-20T11:36:21;11.57;;;6.00;;
16416;SDS011;8317;52.186;5.688;2023-03-20T11:38:50;14.20;;;5.95;;
16416;SDS011;8317;52.186;5.688;2023-03-20T11:41:21;13.70;;;5.80;;
16416;SDS011;8317;52.186;5.688;2023-03-20T11:43:50;8.32;;;5.13;;
16416;SDS011;8317;52.186;5.688;2023-03-20T11:46:18;10.25;;;5.68;;
16416;SDS011;8317;52.186;5.688;2023-03-20T11:48:59;10.45;;;5.63;;
16416;SDS011;8317;52.186;5.688;2023-03-20T11:51:29;11.90;;;6.22;;
16416;SDS011;8317;52.186;5.688;2023-03-20T11:53:58;11.98;;;5.90;;
16416;SDS011;8317;52.186;5.688;2023-03-20T11:56:30;19.40;;;7.05;;
16416;SDS011;8317;52.186;5.688;2023-03-20T11:58:59;18.33;;;7.38;;
16416;SDS011;8317;52.186;5.688;2023-03-20T12:01:36;15.05;;;7.47;;
16416;SDS011;8317;52.186;5.688;2023-03-20T12:04:09;17.73;;;8.23;;
16416;SDS011;8317;52.186;5.688;2023-03-20T12:06:45;14.35;;;8.55;;
16416;SDS011;8317;52.186;5.688;2023-03-20T12:09:24;17.17;;;8.15;;
16416;SDS011;8317;52.186;5.688;2023-03-20T12:11:58;21.10;;;9.55;;
16416;SDS011;8317;52.186;5.688;2023-03-20T12:14:30;20.00;;;9.00;;
16416;SDS011;8317;52.186;5.688;2023-03-20T12:17:24;16.92;;;9.25;;
16416;SDS011;8317;52.186;5.688;2023-03-20T12:19:58;20.77;;;11.60;;
16416;SDS011;8317;52.186;5.688;2023-03-20T12:22:32;22.05;;;9.85;;
16416;SDS011;8317;52.186;5.688;2023-03-20T12:25:04;22.42;;;10.20;;
16416;SDS011;8317;52.186;5.688;2023-03-20T12:27:42;20.38;;;9.98;;
16416;SDS011;8317;52.186;5.688;2023-03-20T12:30:13;23.15;;;10.55;;
16416;SDS011;8317;52.186;5.688;2023-03-20T12:32:45;18.77;;;10.20;;
16416;SDS011;8317;52.186;5.688;2023-03-20T12:35:19;19.55;;;10.77;;
16416;SDS011;8317;52.186;5.688;2023-03-20T12:37:51;22.38;;;11.32;;
16416;SDS011;8317;52.186;5.688;2023-03-20T12:40:18;26.00;;;11.98;;
16416;SDS011;8317;52.186;5.688;2023-03-20T12:42:59;21.40;;;10.55;;
16416;SDS011;8317;52.186;5.688;2023-03-20T12:45:32;22.98;;;11.23;;
16416;SDS011;8317;52.186;5.688;2023-03-20T12:48:09;15.35;;;11.05;;
16416;SDS011;8317;52.186;5.688;2023-03-20T12:50:46;25.00;;;12.10;;
16416;SDS011;8317;52.186;5.688;2023-03-20T12:53:24;25.52;;;12.45;;
16416;SDS011;8317;52.186;5.688;2023-03-20T12:56:02;28.83;;;14.15;;
16416;SDS011;8317;52.186;5.688;2023-03-20T12:58:42;25.58;;;13.50;;
16416;SDS011;8317;52.186;5.688;2023-03-20T13:01:13;23.00;;;13.38;;
16416;SDS011;8317;52.186;5.688;2023-03-20T13:03:51;26.15;;;13.98;;
16416;SDS011;8317;52.186;5.688;2023-03-20T13:06:29;29.23;;;14.38;;
16416;SDS011;8317;52.186;5.688;2023-03-20T13:09:16;26.52;;;14.23;;
16416;SDS011;8317;52.186;5.688;2023-03-20T13:12:19;27.67;;;15.52;;
16416;SDS011;8317;52.186;5.688;2023-03-20T13:14:57;41.33;;;16.88;;
16416;SDS011;8317;52.186;5.688;2023-03-20T13:17:37;26.67;;;15.38;;
16416;SDS011;8317;52.186;5.688;2023-03-20T13:20:20;25.50;;;16.17;;
16416;SDS011;8317;52.186;5.688;2023-03-20T13:22:57;35.50;;;16.98;;
16416;SDS011;8317;52.186;5.688;2023-03-20T13:25:35;33.30;;;17.35;;
16416;SDS011;8317;52.186;5.688;2023-03-20T13:28:14;34.70;;;16.88;;
16416;SDS011;8317;52.186;5.688;2023-03-20T13:30:47;30.20;;;17.13;;
16416;SDS011;8317;52.186;5.688;2023-03-20T13:33:22;29.75;;;15.95;;
16416;SDS011;8317;52.186;5.688;2023-03-20T13:35:59;31.65;;;15.30;;
16416;SDS011;8317;52.186;5.688;2023-03-20T13:38:34;32.28;;;17.55;;
16416;SDS011;8317;52.186;5.688;2023-03-20T13:41:07;31.85;;;16.05;;
16416;SDS011;8317;52.186;5.688;2023-03-20T13:43:36;32.42;;;16.20;;
16416;SDS011;8317;52.186;5.688;2023-03-20T13:46:08;30.48;;;16.80;;
16416;SDS011;8317;52.186;5.688;2023-03-20T13:48:38;33.92;;;17.35;;
16416;SDS011;8317;52.186;5.688;2023-03-20T13:51:09;33.05;;;16.92;;
16416;SDS011;8317;52.186;5.688;2023-03-20T13:53:45;28.00;;;16.92;;
16416;SDS011;8317;52.186;5.688;2023-03-20T13:56:22;32.50;;;17.98;;
16416;SDS011;8317;52.186;5.688;2023-03-20T13:58:59;36.40;;;17.83;;
16416;SDS011;8317;52.186;5.688;2023-03-20T14:01:40;38.55;;;17.70;;
16416;SDS011;8317;52.186;5.688;2023-03-20T14:04:15;25.27;;;16.85;;
16416;SDS011;8317;52.186;5.688;2023-03-20T14:06:50;31.30;;;16.20;;
16416;SDS011;8317;52.186;5.688;2023-03-20T14:09:25;34.03;;;16.92;;
16416;SDS011;8317;52.186;5.688;2023-03-20T14:11:54;36.05;;;17.33;;
16416;SDS011;8317;52.186;5.688;2023-03-20T14:14:25;35.38;;;17.70;;
16416;SDS011;8317;52.186;5.688;2023-03-20T14:17:02;28.58;;;17.05;;
16416;SDS011;8317;52.186;5.688;2023-03-20T14:19:37;29.90;;;16.00;;
16416;SDS011;8317;52.186;5.688;2023-03-20T14:22:04;29.08;;;17.38;;
16416;SDS011;8317;52.186;5.688;2023-03-20T14:24:34;35.92;;;17.25;;
16416;SDS011;8317;52.186;5.688;2023-03-20T14:27:04;32.00;;;17.42;;
16416;SDS011;8317;52.186;5.688;2023-03-20T14:29:33;29.38;;;17.23;;
16416;SDS011;8317;52.186;5.688;2023-03-20T14:40:46;31.88;;;15.77;;
16416;SDS011;8317;52.186;5.688;2023-03-20T14:43:25;27.30;;;16.42;;
16416;SDS011;8317;52.186;5.688;2023-03-20T14:46:05;28.67;;;17.33;;
16416;SDS011;8317;52.186;5.688;2023-03-20T14:48:44;30.88;;;17.25;;
16416;SDS011;8317;52.186;5.688;2023-03-20T14:51:17;39.20;;;18.17;;
16416;SDS011;8317;52.186;5.688;2023-03-20T14:53:52;37.47;;;17.60;;
16416;SDS011;8317;52.186;5.688;2023-03-20T14:56:24;29.25;;;17.65;;
16416;SDS011;8317;52.186;5.688;2023-03-20T14:58:55;35.90;;;19.33;;
16416;SDS011;8317;52.186;5.688;2023-03-20T15:01:33;29.88;;;18.08;;
16416;SDS011;8317;52.186;5.688;2023-03-20T15:04:19;33.42;;;18.48;;
16416;SDS011;8317;52.186;5.688;2023-03-20T15:06:54;31.00;;;18.27;;
16416;SDS011;8317;52.186;5.688;2023-03-20T15:09:24;33.22;;;18.50;;
16416;SDS011;8317;52.186;5.688;2023-03-20T15:11:54;28.52;;;17.75;;
16416;SDS011;8317;52.186;5.688;2023-03-20T15:14:28;28.75;;;17.45;;
16416;SDS011;8317;52.186;5.688;2023-03-20T15:17:00;30.60;;;17.95;;
16416;SDS011;8317;52.186;5.688;2023-03-20T15:19:30;30.38;;;17.77;;
16416;SDS011;8317;52.186;5.688;2023-03-20T15:21:57;35.75;;;18.52;;